createdAt,value
2017-11-28T00:00:54.674Z,89.90
2017-11-28T00:03:22.959Z,90.00
2017-11-28T00:05:51.275Z,90.00
2017-11-28T00:08:19.566Z,90.00
2017-11-28T00:10:47.855Z,90.10
2017-11-28T00:13:16.181Z,90.20
2017-11-28T00:15:44.470Z,90.30
2017-11-28T00:18:12.782Z,90.30
2017-11-28T00:20:41.078Z,90.20
2017-11-28T00:23:09.397Z,90.20
2017-11-28T00:25:37.741Z,90.30
2017-11-28T00:28:06.027Z,90.40
2017-11-28T00:30:34.333Z,90.20
2017-11-28T00:33:02.626Z,90.10
2017-11-28T00:35:30.937Z,90.00
2017-11-28T00:37:59.230Z,89.90
2017-11-28T00:40:27.549Z,89.80
2017-11-28T00:42:55.829Z,89.70
2017-11-28T00:45:24.117Z,90.10
2017-11-28T00:47:52.439Z,89.70
2017-11-28T00:50:20.734Z,89.70
2017-11-28T00:52:49.045Z,89.70
2017-11-28T00:55:16.566Z,89.50
2017-11-28T00:57:44.898Z,89.60
2017-11-28T01:00:12.438Z,90.20
2017-11-28T01:02:40.738Z,89.60
2017-11-28T01:05:09.042Z,89.50
2017-11-28T01:07:37.347Z,89.50
2017-11-28T01:10:05.659Z,89.40
2017-11-28T01:12:33.963Z,90.00
2017-11-28T01:15:02.298Z,89.70
2017-11-28T01:17:30.590Z,89.80
2017-11-28T01:19:58.887Z,90.00
2017-11-28T01:22:27.200Z,90.00
2017-11-28T01:24:55.482Z,90.10
2017-11-28T01:27:23.799Z,90.00
2017-11-28T01:29:52.090Z,90.00
2017-11-28T01:32:20.400Z,90.10
2017-11-28T01:34:48.681Z,90.10
2017-11-28T01:37:16.965Z,90.10
2017-11-28T01:39:45.308Z,90.10
2017-11-28T01:42:13.582Z,90.10
2017-11-28T01:44:42.492Z,90.10
2017-11-28T01:47:10.790Z,90.10
2017-11-28T01:49:39.111Z,90.10
2017-11-28T01:52:07.422Z,90.20
2017-11-28T01:54:35.720Z,90.20
2017-11-28T01:57:04.034Z,90.30
2017-11-28T01:59:32.334Z,90.30
2017-11-28T02:01:59.883Z,90.40
2017-11-28T02:04:28.196Z,90.40
2017-11-28T02:06:56.520Z,90.50
2017-11-28T02:09:24.815Z,90.50
2017-11-28T02:11:53.106Z,90.50
2017-11-28T02:14:21.456Z,90.60
2017-11-28T02:16:49.725Z,90.60
2017-11-28T02:19:18.034Z,90.60
2017-11-28T02:21:46.333Z,91.00
2017-11-28T02:24:14.665Z,90.70
2017-11-28T02:26:42.954Z,90.60
2017-11-28T02:29:11.242Z,90.50
2017-11-28T02:31:39.570Z,90.50
2017-11-28T02:34:07.106Z,90.50
2017-11-28T02:36:35.418Z,90.60
2017-11-28T02:39:03.718Z,90.50
2017-11-28T02:41:32.044Z,90.50
2017-11-28T02:44:05.989Z,90.40
2017-11-28T02:46:34.303Z,90.30
2017-11-28T02:49:10.185Z,90.30
2017-11-28T02:51:38.505Z,90.30
2017-11-28T02:54:06.789Z,90.30
2017-11-28T02:56:35.082Z,90.30
2017-11-28T02:59:09.233Z,90.30
2017-11-28T03:01:42.451Z,90.30
2017-11-28T03:04:10.753Z,90.40
2017-11-28T03:06:39.055Z,90.40
2017-11-28T03:09:30.918Z,90.40
2017-11-28T03:12:00.058Z,90.50
2017-11-28T03:14:29.250Z,90.40
2017-11-28T03:16:57.558Z,90.30
2017-11-28T03:19:42.394Z,90.30
2017-11-28T03:22:32.212Z,90.40
2017-11-28T03:25:08.358Z,90.50
2017-11-28T03:27:36.665Z,90.50
2017-11-28T03:30:09.427Z,90.50
2017-11-28T03:32:37.740Z,90.40
2017-11-28T03:35:06.039Z,90.20
2017-11-28T03:37:34.376Z,90.20
2017-11-28T03:40:02.675Z,90.20
2017-11-28T03:42:30.973Z,90.10
2017-11-28T03:45:17.804Z,90.00
2017-11-28T03:47:46.097Z,90.10
2017-11-28T03:50:14.426Z,90.50
2017-11-28T03:52:42.722Z,90.00
2017-11-28T03:55:11.032Z,89.90
2017-11-28T03:57:39.318Z,89.90
2017-11-28T04:00:07.601Z,89.70
2017-11-28T04:02:35.923Z,89.70
2017-11-28T04:05:04.219Z,89.40
2017-11-28T04:07:32.538Z,89.50
2017-11-28T04:10:00.822Z,89.40
2017-11-28T04:12:29.114Z,89.30
2017-11-28T04:14:57.420Z,89.20
2017-11-28T04:17:25.709Z,89.10
2017-11-28T04:19:54.027Z,89.10
2017-11-28T04:22:22.851Z,89.10
2017-11-28T04:24:51.142Z,89.10
2017-11-28T04:27:19.455Z,89.10
2017-11-28T04:29:47.746Z,89.00
2017-11-28T04:32:16.079Z,88.90
2017-11-28T04:34:44.375Z,88.90
2017-11-28T04:37:12.666Z,89.00
2017-11-28T04:39:40.978Z,88.70
2017-11-28T04:42:09.289Z,88.80
2017-11-28T04:44:37.627Z,88.80
2017-11-28T04:47:05.922Z,88.80
2017-11-28T04:49:34.210Z,88.70
2017-11-28T04:52:02.509Z,88.60
2017-11-28T04:54:30.802Z,88.60
2017-11-28T04:56:59.121Z,88.70
2017-11-28T04:59:27.426Z,88.70
2017-11-28T05:01:55.735Z,88.50
2017-11-28T05:04:24.763Z,88.40
2017-11-28T05:06:53.046Z,88.40
2017-11-28T05:09:21.361Z,88.30
2017-11-28T05:11:48.877Z,88.30
2017-11-28T05:14:17.194Z,88.60
2017-11-28T05:16:45.478Z,88.50
2017-11-28T05:19:13.799Z,88.60
2017-11-28T05:21:42.078Z,88.70
2017-11-28T05:24:10.377Z,88.80
2017-11-28T05:26:38.696Z,88.90
2017-11-28T05:29:06.982Z,88.90
2017-11-28T05:31:35.290Z,88.90
2017-11-28T05:34:02.805Z,88.80
2017-11-28T05:36:31.127Z,88.90
2017-11-28T05:38:59.405Z,89.00
2017-11-28T05:41:27.698Z,88.90
2017-11-28T05:43:56.009Z,88.80
2017-11-28T05:46:24.298Z,89.00
2017-11-28T05:48:52.606Z,89.10
2017-11-28T05:51:20.897Z,89.10
2017-11-28T05:53:49.222Z,89.10
2017-11-28T05:56:17.510Z,89.00
2017-11-28T05:58:45.798Z,88.90
2017-11-28T06:01:14.101Z,89.00
2017-11-28T06:03:42.389Z,89.10
2017-11-28T06:06:10.700Z,89.10
2017-11-28T06:08:39.247Z,89.10
2017-11-28T06:11:11.326Z,89.30
2017-11-28T06:13:39.605Z,89.20
2017-11-28T06:16:07.895Z,89.30
2017-11-28T06:18:36.206Z,89.00
2017-11-28T06:21:04.502Z,89.00
2017-11-28T06:23:32.817Z,88.90
2017-11-28T06:26:01.114Z,89.20
2017-11-28T06:28:29.441Z,89.30
2017-11-28T06:30:57.723Z,89.30
2017-11-28T06:33:25.243Z,89.30
2017-11-28T06:35:53.598Z,89.30
2017-11-28T06:38:21.882Z,89.30
2017-11-28T06:40:50.186Z,89.30
2017-11-28T06:43:18.474Z,89.40
2017-11-28T06:45:46.788Z,89.60
2017-11-28T06:48:15.084Z,89.60
2017-11-28T06:50:43.401Z,89.20
2017-11-28T06:53:11.713Z,89.30
2017-11-28T06:55:40.003Z,89.40
2017-11-28T06:58:08.315Z,89.60
2017-11-28T07:00:36.615Z,89.70
2017-11-28T07:03:04.934Z,89.80
2017-11-28T07:05:33.217Z,89.80
2017-11-28T07:08:01.538Z,90.00
2017-11-28T07:10:29.846Z,90.10
2017-11-28T07:12:58.138Z,90.20
2017-11-28T07:15:26.459Z,90.30
2017-11-28T07:17:54.771Z,90.40
2017-11-28T07:20:23.057Z,90.40
2017-11-28T07:22:51.369Z,90.40
2017-11-28T07:25:19.658Z,90.60
2017-11-28T07:27:47.972Z,90.60
2017-11-28T07:30:16.263Z,90.70
2017-11-28T07:32:44.549Z,90.70
2017-11-28T07:35:12.854Z,90.70
2017-11-28T07:37:41.894Z,90.70
2017-11-28T07:40:09.446Z,90.70
2017-11-28T07:42:37.749Z,90.80
2017-11-28T07:45:06.081Z,90.80
2017-11-28T07:47:34.386Z,90.80
2017-11-28T07:50:02.677Z,90.70
2017-11-28T07:52:30.982Z,90.80
2017-11-28T07:54:59.273Z,90.80
2017-11-28T07:57:27.586Z,90.70
2017-11-28T07:59:55.875Z,90.70
2017-11-28T08:02:24.226Z,90.60
2017-11-28T08:04:53.272Z,90.70
2017-11-28T08:07:21.570Z,90.60
2017-11-28T08:09:49.888Z,90.60
2017-11-28T08:14:52.149Z,90.50
2017-11-28T08:17:20.446Z,90.40
2017-11-28T08:19:48.736Z,90.60
2017-11-28T08:22:17.071Z,90.10
2017-11-28T08:24:45.370Z,89.90
2017-11-28T08:27:13.734Z,89.90
2017-11-28T08:29:42.022Z,89.80
2017-11-28T08:32:10.426Z,89.80
2017-11-28T08:34:38.743Z,90.00
2017-11-28T08:37:07.030Z,90.00
2017-11-28T08:39:35.390Z,90.00
2017-11-28T08:42:03.678Z,89.60
2017-11-28T08:44:31.973Z,89.20
2017-11-28T08:47:00.275Z,89.10
2017-11-28T08:49:28.575Z,88.90
2017-11-28T08:51:56.909Z,88.70
2017-11-28T08:54:25.208Z,88.40
2017-11-28T08:56:53.494Z,88.20
2017-11-28T08:59:21.826Z,87.80
2017-11-28T09:01:50.114Z,87.80
2017-11-28T09:04:18.442Z,88.00
2017-11-28T09:06:46.727Z,88.70
2017-11-28T09:09:15.014Z,88.10
2017-11-28T09:11:43.318Z,88.30
2017-11-28T09:14:11.605Z,88.40
2017-11-28T09:16:39.910Z,87.70
2017-11-28T09:19:08.192Z,87.70
2017-11-28T09:21:36.538Z,87.80
2017-11-28T09:24:04.826Z,87.80
2017-11-28T09:26:33.109Z,87.70
2017-11-28T09:29:01.415Z,87.40
2017-11-28T09:31:29.713Z,86.10
2017-11-28T09:33:58.047Z,86.30
2017-11-28T09:36:26.341Z,86.00
2017-11-28T09:38:54.681Z,85.10
2017-11-28T09:41:22.978Z,83.90
2017-11-28T09:43:51.266Z,84.10
2017-11-28T09:46:19.584Z,82.30
2017-11-28T09:48:47.879Z,82.10
2017-11-28T09:51:16.194Z,80.90
2017-11-28T09:53:44.495Z,80.10
2017-11-28T09:56:12.819Z,79.80
2017-11-28T09:58:41.112Z,79.70
2017-11-28T10:01:09.407Z,79.60
2017-11-28T10:03:37.718Z,79.90
2017-11-28T10:06:06.006Z,79.80
2017-11-28T10:08:34.335Z,78.60
2017-11-28T10:11:02.632Z,77.30
2017-11-28T10:13:30.917Z,77.30
2017-11-28T10:15:59.226Z,76.30
2017-11-28T10:18:27.510Z,75.90
2017-11-28T10:20:55.801Z,76.00
2017-11-28T10:23:24.122Z,76.20
2017-11-28T10:25:52.414Z,75.40
2017-11-28T10:28:20.737Z,75.30
2017-11-28T10:30:49.061Z,75.60
2017-11-28T10:33:17.351Z,74.10
2017-11-28T10:35:45.657Z,73.80
2017-11-28T10:38:13.941Z,74.70
2017-11-28T10:40:42.275Z,74.50
2017-11-28T10:43:10.574Z,74.40
2017-11-28T10:45:39.713Z,74.30
2017-11-28T10:48:08.034Z,74.80
2017-11-28T10:50:36.327Z,75.20
2017-11-28T10:53:04.641Z,75.60
2017-11-28T10:55:32.934Z,76.10
2017-11-28T10:58:01.261Z,75.80
2017-11-28T11:00:29.553Z,75.30
2017-11-28T11:02:57.844Z,74.70
2017-11-28T11:05:26.159Z,73.90
2017-11-28T11:07:54.454Z,74.10
2017-11-28T11:10:22.768Z,73.20
2017-11-28T11:12:51.058Z,72.20
2017-11-28T11:15:19.389Z,71.50
2017-11-28T11:17:47.677Z,71.20
2017-11-28T11:20:15.969Z,71.00
2017-11-28T11:22:44.287Z,69.40
2017-11-28T11:25:12.573Z,68.60
2017-11-28T11:27:40.881Z,69.30
2017-11-28T11:30:09.187Z,68.30
2017-11-28T11:32:37.508Z,68.00
2017-11-28T11:35:05.803Z,68.00
2017-11-28T11:37:34.089Z,67.20
2017-11-28T11:40:02.397Z,67.20
2017-11-28T11:42:30.694Z,65.60
2017-11-28T11:44:59.005Z,65.20
2017-11-28T11:47:27.298Z,66.10
2017-11-28T11:49:55.619Z,66.10
2017-11-28T11:52:23.906Z,66.80
2017-11-28T11:54:52.227Z,66.70
2017-11-28T11:57:20.530Z,66.70
2017-11-28T11:59:48.853Z,66.30
2017-11-28T12:02:17.168Z,66.50
2017-11-28T12:04:45.485Z,66.10
2017-11-28T12:07:13.832Z,65.80
2017-11-28T12:09:42.143Z,65.70
2017-11-28T12:12:10.434Z,65.70
2017-11-28T12:14:38.750Z,65.40
2017-11-28T12:17:07.242Z,65.80
2017-11-28T12:19:35.559Z,65.70
2017-11-28T12:22:03.858Z,64.30
2017-11-28T12:24:32.174Z,65.30
2017-11-28T12:27:00.464Z,63.80
2017-11-28T12:29:28.786Z,63.60
2017-11-28T12:31:57.088Z,65.10
2017-11-28T12:34:25.407Z,63.70
2017-11-28T12:36:53.698Z,62.70
2017-11-28T12:39:22.011Z,62.00
2017-11-28T12:41:49.537Z,61.90
2017-11-28T12:44:17.857Z,62.80
2017-11-28T12:46:46.149Z,62.20
2017-11-28T12:49:14.457Z,62.20
2017-11-28T12:51:42.745Z,61.80
2017-11-28T12:54:11.059Z,61.90
2017-11-28T12:56:39.358Z,62.10
2017-11-28T12:59:07.680Z,61.60
2017-11-28T13:01:35.973Z,61.50
2017-11-28T13:04:04.296Z,61.20
2017-11-28T13:06:32.598Z,61.10
2017-11-28T13:09:00.914Z,61.50
2017-11-28T13:11:28.441Z,61.50
2017-11-28T13:13:56.774Z,62.00
2017-11-28T13:16:25.061Z,61.90
2017-11-28T13:18:53.353Z,61.10
2017-11-28T13:21:21.674Z,61.30
2017-11-28T13:23:49.966Z,60.90
2017-11-28T13:26:18.282Z,60.80
2017-11-28T13:28:46.575Z,61.00
2017-11-28T13:31:14.882Z,60.00
2017-11-28T13:33:43.175Z,59.80
2017-11-28T13:36:11.491Z,60.80
2017-11-28T13:38:39.777Z,61.10
2017-11-28T13:41:08.090Z,59.70
2017-11-28T13:43:36.373Z,59.40
2017-11-28T13:46:08.268Z,60.00
2017-11-28T13:48:36.571Z,60.00
2017-11-28T13:51:04.890Z,60.30
2017-11-28T13:53:33.181Z,61.00
2017-11-28T13:56:01.489Z,61.60
2017-11-28T13:58:29.781Z,61.80
2017-11-28T14:00:58.090Z,62.70
2017-11-28T14:03:25.619Z,62.70
2017-11-28T14:05:53.921Z,64.20
2017-11-28T14:08:22.211Z,65.10
2017-11-28T14:10:50.522Z,66.40
2017-11-28T14:13:18.814Z,66.60
2017-11-28T14:15:47.117Z,67.00
2017-11-28T14:18:15.410Z,67.30
2017-11-28T14:20:49.327Z,67.90
2017-11-28T14:23:22.130Z,68.70
2017-11-28T14:25:53.358Z,69.30
2017-11-28T14:28:24.741Z,69.70
2017-11-28T14:30:58.734Z,69.90
2017-11-28T14:33:27.765Z,70.40
2017-11-28T14:36:01.842Z,71.50
2017-11-28T14:38:30.124Z,72.60
2017-11-28T14:41:00.030Z,73.60
2017-11-28T14:43:28.350Z,73.70
2017-11-28T14:45:58.599Z,73.90
2017-11-28T14:48:26.891Z,74.30
2017-11-28T14:51:00.890Z,75.00
2017-11-28T14:53:34.908Z,75.70
2017-11-28T14:56:04.810Z,76.30
2017-11-28T14:58:47.977Z,77.00
2017-11-28T15:01:21.842Z,77.90
2017-11-28T15:04:08.841Z,78.40
2017-11-28T15:06:42.734Z,79.00
2017-11-28T15:09:16.670Z,79.40
2017-11-28T15:12:04.705Z,79.90
2017-11-28T15:14:38.708Z,80.30
2017-11-28T15:17:27.784Z,80.70
2017-11-28T15:20:14.866Z,81.10
2017-11-28T15:22:44.070Z,81.40
2017-11-28T15:25:15.871Z,82.50
2017-11-28T15:27:44.177Z,81.90
2017-11-28T15:30:12.481Z,82.20
2017-11-28T15:32:40.766Z,82.50
2017-11-28T15:35:09.075Z,83.10
2017-11-28T15:37:37.361Z,83.30
2017-11-28T15:40:05.685Z,83.60
2017-11-28T15:42:33.966Z,83.80
2017-11-28T15:45:02.265Z,84.20
2017-11-28T15:47:30.570Z,84.30
2017-11-28T15:49:58.855Z,84.30
2017-11-28T15:52:27.158Z,84.50
2017-11-28T15:54:55.451Z,84.70
2017-11-28T15:57:23.774Z,84.30
2017-11-28T15:59:51.302Z,84.80
2017-11-28T16:02:19.601Z,85.30
2017-11-28T16:04:47.894Z,85.30
2017-11-28T16:07:16.202Z,85.30
2017-11-28T16:09:44.485Z,85.50
2017-11-28T16:12:12.793Z,85.60
2017-11-28T16:14:41.078Z,85.70
2017-11-28T16:17:09.395Z,85.90
2017-11-28T16:19:37.689Z,86.10
2017-11-28T16:22:05.998Z,86.20
2017-11-28T16:24:34.285Z,86.30
2017-11-28T16:27:02.587Z,86.50
2017-11-28T16:29:30.878Z,86.60
2017-11-28T16:31:59.195Z,86.80
2017-11-28T16:34:27.488Z,86.80
2017-11-28T16:36:55.805Z,86.80
2017-11-28T16:39:24.085Z,86.90
2017-11-28T16:41:52.408Z,87.00
2017-11-28T16:44:20.694Z,87.20
2017-11-28T16:46:49.014Z,87.20
2017-11-28T16:49:17.305Z,87.50
2017-11-28T16:51:45.594Z,87.50
2017-11-28T16:54:13.906Z,87.50
2017-11-28T16:56:42.190Z,87.80
2017-11-28T16:59:10.494Z,88.10
2017-11-28T17:01:38.774Z,88.20
2017-11-28T17:04:07.086Z,88.30
2017-11-28T17:06:35.380Z,88.40
2017-11-28T17:09:03.695Z,88.60
2017-11-28T17:11:31.226Z,88.20
2017-11-28T17:13:59.547Z,88.80
2017-11-28T17:16:27.839Z,89.10
2017-11-28T17:18:55.380Z,88.80
2017-11-28T17:21:23.664Z,88.70
2017-11-28T17:23:51.981Z,88.60
2017-11-28T17:26:20.269Z,88.40
2017-11-28T17:28:48.577Z,88.00
2017-11-28T17:31:16.870Z,87.90
2017-11-28T17:33:45.174Z,87.80
2017-11-28T17:36:13.465Z,87.70
2017-11-28T17:38:41.778Z,87.60
2017-11-28T17:41:10.075Z,87.40
2017-11-28T17:43:38.381Z,87.30
2017-11-28T17:46:06.673Z,87.30
2017-11-28T17:48:34.982Z,87.20
2017-11-28T17:51:03.266Z,87.20
2017-11-28T17:53:31.574Z,87.10
2017-11-28T17:55:59.873Z,87.10
2017-11-28T17:58:28.193Z,87.00
2017-11-28T18:00:56.486Z,86.80
2017-11-28T18:03:24.797Z,86.70
2017-11-28T18:05:53.090Z,86.10
2017-11-28T18:08:21.401Z,86.70
2017-11-28T18:10:49.690Z,86.40
2017-11-28T18:13:18.006Z,86.60
2017-11-28T18:15:46.292Z,86.60
2017-11-28T18:18:14.601Z,86.60
2017-11-28T18:20:42.890Z,86.50
2017-11-28T18:23:11.198Z,86.40
2017-11-28T18:25:40.237Z,86.30
2017-11-28T18:28:08.555Z,86.20
2017-11-28T18:30:36.864Z,86.20
2017-11-28T18:33:05.158Z,86.20
2017-11-28T18:35:33.470Z,86.20
2017-11-28T18:38:01.761Z,86.20
2017-11-28T18:40:30.088Z,86.30
2017-11-28T18:42:58.384Z,86.20
2017-11-28T18:45:26.694Z,86.20
2017-11-28T18:47:55.038Z,86.20
2017-11-28T18:50:23.350Z,86.40
2017-11-28T18:52:51.645Z,86.60
2017-11-28T18:55:19.955Z,86.60
2017-11-28T18:57:48.260Z,86.60
2017-11-28T19:00:16.594Z,86.50
2017-11-28T19:02:44.881Z,86.40
2017-11-28T19:05:13.203Z,86.40
2017-11-28T19:07:41.494Z,86.40
2017-11-28T19:10:09.810Z,86.50
2017-11-28T19:12:38.110Z,86.70
2017-11-28T19:15:06.426Z,86.80
2017-11-28T19:17:34.717Z,87.00
2017-11-28T19:20:03.026Z,87.20
2017-11-28T19:22:31.316Z,87.20
2017-11-28T19:24:59.625Z,87.30
2017-11-28T19:27:27.914Z,87.30
2017-11-28T19:29:56.226Z,87.30
2017-11-28T19:32:24.522Z,87.40
2017-11-28T19:34:52.834Z,87.40
2017-11-28T19:37:21.130Z,87.30
2017-11-28T19:39:49.445Z,87.30
2017-11-28T19:42:17.766Z,87.40
2017-11-28T19:44:46.082Z,87.50
2017-11-28T19:47:14.369Z,87.50
2017-11-28T19:49:42.682Z,88.20
2017-11-28T19:52:10.977Z,87.50
2017-11-28T19:54:39.285Z,87.50
2017-11-28T19:57:08.166Z,87.40
2017-11-28T19:59:36.477Z,87.50
2017-11-28T20:02:04.761Z,87.60
2017-11-28T20:04:33.091Z,87.60
2017-11-28T20:07:01.395Z,87.60
2017-11-28T20:09:29.682Z,87.60
2017-11-28T20:11:57.995Z,87.70
2017-11-28T20:14:26.297Z,87.60
2017-11-28T20:16:54.610Z,87.60
2017-11-28T20:19:22.898Z,87.60
2017-11-28T20:21:51.222Z,88.10
2017-11-28T20:24:19.513Z,87.70
2017-11-28T20:26:47.859Z,87.70
2017-11-28T20:29:16.134Z,87.60
2017-11-28T20:31:44.446Z,87.90
2017-11-28T20:34:12.734Z,88.20
2017-11-28T20:36:41.038Z,88.30
2017-11-28T20:39:09.320Z,88.50
2017-11-28T20:41:37.629Z,88.50
2017-11-28T20:44:05.913Z,88.50
2017-11-28T20:46:34.220Z,88.60
2017-11-28T20:49:08.273Z,88.50
2017-11-28T20:51:36.581Z,88.50
2017-11-28T20:54:04.874Z,88.50
2017-11-28T20:56:33.186Z,88.50
2017-11-28T20:59:00.710Z,88.40
2017-11-28T21:01:29.017Z,88.30
2017-11-28T21:03:57.306Z,88.30
2017-11-28T21:06:25.613Z,88.20
2017-11-28T21:08:53.897Z,88.20
2017-11-28T21:11:22.205Z,88.20
2017-11-28T21:13:50.487Z,88.10
2017-11-28T21:16:18.806Z,88.10
2017-11-28T21:18:47.089Z,88.00
2017-11-28T21:21:15.398Z,88.00
2017-11-28T21:23:43.694Z,88.10
2017-11-28T21:26:11.998Z,88.10
2017-11-28T21:28:40.320Z,88.20
2017-11-28T21:31:08.652Z,88.30
2017-11-28T21:33:36.964Z,88.10
2017-11-28T21:36:05.254Z,88.90
2017-11-28T21:38:33.561Z,88.00
2017-11-28T21:41:01.842Z,88.00
2017-11-28T21:43:30.150Z,88.00
2017-11-28T21:45:58.437Z,88.00
2017-11-28T21:48:26.764Z,88.00
2017-11-28T21:50:55.055Z,88.10
2017-11-28T21:53:23.353Z,88.20
2017-11-28T21:55:51.669Z,88.10
2017-11-28T21:58:19.978Z,88.20
2017-11-28T22:00:48.287Z,88.40
2017-11-28T22:03:16.586Z,88.50
2017-11-28T22:05:44.913Z,88.60
2017-11-28T22:08:13.210Z,88.70
2017-11-28T22:10:41.496Z,88.80
2017-11-28T22:13:09.802Z,88.90
2017-11-28T22:15:38.310Z,88.90
2017-11-28T22:18:06.645Z,88.90
2017-11-28T22:20:34.942Z,88.80
2017-11-28T22:23:03.233Z,88.90
2017-11-28T22:25:31.562Z,88.90
2017-11-28T22:27:59.868Z,89.00
2017-11-28T22:30:28.199Z,89.00
2017-11-28T22:32:56.493Z,89.00
2017-11-28T22:35:24.781Z,89.90
2017-11-28T22:37:53.093Z,89.70
2017-11-28T22:40:21.391Z,89.90
2017-11-28T22:42:49.734Z,89.00
2017-11-28T22:45:18.021Z,89.00
2017-11-28T22:47:46.314Z,88.90
2017-11-28T22:50:14.618Z,88.90
2017-11-28T22:52:42.905Z,89.40
2017-11-28T22:55:11.233Z,89.50
2017-11-28T22:57:39.526Z,89.10
2017-11-28T23:00:07.814Z,89.30
2017-11-28T23:02:36.116Z,89.40
2017-11-28T23:05:04.412Z,89.40
2017-11-28T23:07:32.746Z,89.60
2017-11-28T23:10:01.050Z,89.60
2017-11-28T23:12:29.381Z,89.60
2017-11-28T23:14:57.670Z,89.60
2017-11-28T23:17:25.969Z,89.40
2017-11-28T23:19:54.278Z,89.40
2017-11-28T23:22:22.578Z,89.60
2017-11-28T23:24:50.886Z,89.70
2017-11-28T23:27:19.169Z,89.70
2017-11-28T23:29:47.493Z,89.80
2017-11-28T23:32:15.777Z,89.80
2017-11-28T23:34:44.065Z,89.80
2017-11-28T23:37:12.374Z,89.70
2017-11-28T23:39:40.661Z,89.70
2017-11-28T23:42:09.186Z,89.60
2017-11-28T23:44:37.474Z,89.80
2017-11-28T23:47:05.801Z,89.80
2017-11-28T23:49:34.106Z,89.80
2017-11-28T23:52:02.395Z,89.80
2017-11-28T23:54:30.751Z,90.30
2017-11-28T23:56:59.037Z,89.70
2017-11-28T23:59:27.336Z,89.70
